Flight Track Log - Related Links

Times and Time Zones

All times are in EDT time to prevent confusion due to time zone crossing. See the UAL654 flight status page for this flight to view local times or setup timezone preferences in your user account.

Time Position Orientation Groundspeed Altitude Reporting Facility
EDT Latitude Longitude Course Direction KTS MPH feet Rate Location/Type
Wed 07:22:36 AM 41.9167 -87.9000 173° South 162 186 3,300  Level Chicago TRACON
Wed 07:23:31 AM 41.8667 -87.9000 180° South 188 216 4,400 1,189 Climbing Chicago TRACON
Wed 07:24:00 AM 41.6532 -87.7140 157° South  Level Estimated
Wed 07:24:27 AM 41.8114 -87.9003 180° South 235 270 5,500  Level Chicago Center
Wed 07:25:00 AM 41.5437 -87.6503 153° Southeast  Level Estimated
Wed 07:25:28 AM 41.7422 -87.8386 146° Southeast 289 333 8,300  Level Chicago Center
Wed 07:26:00 AM 41.4341 -87.5867 166° South  Level Estimated
Wed 07:26:29 AM 41.6694 -87.7783 148° Southeast 302 348 10,700  Level Chicago Center
Wed 07:27:00 AM 41.3245 -87.5234 173° South  Level Estimated
Wed 07:27:31 AM 41.5889 -87.7097 147° Southeast 339 390 12,500  Level Chicago Center
Wed 07:28:32 AM 41.4803 -87.6172 147° Southeast 379 436 15,000 2,410 Climbing Chicago Center
Wed 07:29:33 AM 41.3778 -87.5653 159° South 398 458 17,400 2,244 Climbing Chicago Center
Wed 07:30:35 AM 41.2703 -87.5458 172° South 390 449 19,600 1,951 Climbing Chicago Center
Wed 07:31:36 AM 41.1589 -87.5242 172° South 398 458 21,400 1,659 Climbing Chicago Center
Wed 07:32:38 AM 41.0442 -87.4914 168° South 415 478 23,000 1,366 Climbing Chicago Center
Wed 07:33:39 AM 40.9239 -87.4575 168° South 433 498 24,200 1,366 Climbing Chicago Center
Wed 07:34:41 AM 40.8014 -87.4186 166° South 451 519 25,800 1,463 Climbing Chicago Center
Wed 07:35:42 AM 40.6792 -87.3594 160° South 468 539 27,200 1,268 Climbing Chicago Center
Wed 07:36:44 AM 40.5594 -87.2833 154° Southeast 478 550 28,400 1,268 Climbing Chicago Center
Wed 07:37:45 AM 40.4186 -87.1981 155° Southeast 492 566 29,800 1,268 Climbing Chicago Center
Wed 07:38:47 AM 40.2975 -87.1092 151° Southeast 500 575 31,000 1,268 Climbing Chicago Center
Wed 07:39:48 AM 40.1767 -87.0214 151° Southeast 501 577 32,400 1,418 Climbing Chicago Center
Wed 07:40:37 AM 40.0792 -86.9503 151° Southeast 498 573 33,600 1,309 Climbing Indianapolis Center
Wed 07:41:38 AM 39.9592 -86.8658 152° Southeast 493 567 34,800 683 Climbing Indianapolis Center
Wed 07:42:40 AM 39.8175 -86.7644 151° Southeast 489 563 35,000 98 Climbing Indianapolis Center
Wed 07:43:41 AM 39.7008 -86.6814 151° Southeast 485 558 35,000 341 Level Indianapolis Center
Wed 07:44:43 AM 39.5822 -86.5981 152° Southeast 490 564 35,700 774 Climbing Indianapolis Center
Wed 07:45:45 AM 39.4631 -86.5147 152° Southeast 493 567 36,600 634 Climbing Indianapolis Center
Wed 07:46:46 AM 39.3456 -86.4300 151° Southeast 491 565 37,000 195 Climbing Indianapolis Center
Wed 07:47:48 AM 39.2256 -86.3469 152° Southeast 491 565 37,000  Level Indianapolis Center
Wed 07:48:49 AM 39.0819 -86.2458 151° Southeast 493 567 37,000  Level Indianapolis Center
Wed 07:49:51 AM 38.9608 -86.1631 152° Southeast 494 568 37,000  Level Indianapolis Center
Wed 07:50:53 AM 38.8322 -86.0736 152° Southeast 493 567 37,000  Level Indianapolis Center
Wed 07:51:54 AM 38.7100 -85.9889 152° Southeast 494 568 37,000  Level Indianapolis Center
Wed 07:52:56 AM 38.5861 -85.9044 152° Southeast 498 573 37,000  Level Indianapolis Center
Wed 07:53:57 AM 38.4633 -85.8214 152° Southeast 498 573 37,000  Level Indianapolis Center
Wed 07:54:59 AM 38.3417 -85.7375 152° Southeast 495 570 37,000  Level Indianapolis Center
Wed 07:56:01 AM 38.2183 -85.6553 152° Southeast 495 570 37,000  Level Indianapolis Center
Wed 07:57:02 AM 38.0931 -85.5806 155° Southeast 492 566 37,000  Level Indianapolis Center
Wed 07:58:04 AM 37.9572 -85.5381 166° South 494 568 37,000  Level Indianapolis Center
Wed 07:59:05 AM 37.8186 -85.5014 168° South 490 564 37,000  Level Indianapolis Center
Wed 08:00:07 AM 37.6892 -85.4636 167° South 483 556 37,000  Level Indianapolis Center
Wed 08:01:09 AM 37.5336 -85.4247 169° South 488 562 37,000  Level Indianapolis Center
Wed 08:02:10 AM 37.4019 -85.3908 168° South 483 556 37,000  Level Indianapolis Center
Wed 08:03:12 AM 37.2703 -85.3544 168° South 484 557 37,000  Level Indianapolis Center
Wed 08:04:13 AM 37.1397 -85.3206 168° South 481 554 37,000  Level Indianapolis Center
Wed 08:05:15 AM 37.0006 -85.2836 168° South 478 550 37,000  Level Indianapolis Center
Wed 08:06:16 AM 36.8700 -85.2486 168° South 478 550 37,000  Level Indianapolis Center
Wed 08:07:18 AM 36.7400 -85.2147 168° South 478 550 37,000  Level Indianapolis Center
Wed 08:08:20 AM 36.6100 -85.1819 169° South 476 548 37,000  Level Indianapolis Center
Wed 08:09:21 AM 36.4814 -85.1486 168° South 474 545 37,000  Level Indianapolis Center
Wed 08:10:23 AM 36.3525 -85.1147 168° South 473 544 37,000  Level Indianapolis Center
Wed 08:11:25 AM 36.1978 -85.0750 168° South 473 544 37,000  Level Indianapolis Center
Wed 08:12:27 AM 36.0697 -85.0419 168° South 473 544 37,000  Level Indianapolis Center
Wed 08:13:28 AM 35.9492 -85.0117 169° South 469 540 37,000  Level Indianapolis Center
Wed 08:14:30 AM 35.8156 -84.9758 168° South 486 559 37,000  Level Indianapolis Center
Wed 08:15:20 AM 35.6919 -84.9492 170° South 473 544 37,000  Level Atlanta Center
Wed 08:16:20 AM 35.5669 -84.9169 168° South 473 544 37,000  Level Atlanta Center
Wed 08:17:20 AM 35.4381 -84.8825 168° South 468 539 37,000  Level Atlanta Center
Wed 08:18:20 AM 35.3089 -84.8506 169° South 468 539 37,000  Level Atlanta Center
Wed 08:19:20 AM 35.1797 -84.8189 169° South 468 539 37,000  Level Atlanta Center
Wed 08:20:20 AM 35.0525 -84.7872 168° South 468 539 37,000  Level Atlanta Center
Wed 08:21:20 AM 34.9256 -84.7533 168° South 468 539 37,000  Level Atlanta Center
Wed 08:22:20 AM 34.7942 -84.7217 169° South 468 539 37,000  Level Atlanta Center
Wed 08:23:20 AM 34.6669 -84.6903 169° South 468 539 37,000  Level Atlanta Center
Wed 08:24:20 AM 34.5419 -84.6592 168° South 462 532 37,000  Level Atlanta Center
Wed 08:25:20 AM 34.4128 -84.6256 168° South 468 539 37,000  Level Atlanta Center
Wed 08:26:20 AM 34.2836 -84.5944 169° South 468 539 37,000  Level Atlanta Center
Wed 08:27:20 AM 34.1564 -84.5633 169° South 468 539 37,000  Level Atlanta Center
Wed 08:28:20 AM 34.0228 -84.5350 170° South 478 550 37,000  Level Atlanta Center
Wed 08:29:20 AM 33.9081 -84.5044 168° South 478 550 37,000  Level Atlanta Center
Wed 08:30:20 AM 33.7747 -84.4736 169° South 483 556 37,000  Level Atlanta Center
Wed 08:31:20 AM 33.6475 -84.4431 169° South 478 550 37,000  Level Atlanta Center
Wed 08:32:20 AM 33.5119 -84.3925 163° South 472 543 37,000  Level Atlanta Center
Wed 08:33:20 AM 33.3911 -84.3400 160° South 462 532 37,000  Level Atlanta Center
Wed 08:34:20 AM 33.2681 -84.2897 161° South 462 532 37,000  Level Atlanta Center
Wed 08:35:20 AM 33.1450 -84.2372 160° South 469 540 37,000  Level Atlanta Center
Wed 08:36:20 AM 33.0261 -84.1875 161° South 458 527 37,000  Level Atlanta Center
Wed 08:37:20 AM 32.9050 -84.1378 161° South 458 527 37,000  Level Atlanta Center
Wed 08:38:20 AM 32.7839 -84.0858 160° South 463 533 37,000  Level Atlanta Center
Wed 08:39:20 AM 32.6628 -84.0364 161° South 463 533 37,000  Level Atlanta Center
Wed 08:40:20 AM 32.5419 -83.9869 161° South 463 533 37,000  Level Atlanta Center
Wed 08:41:20 AM 32.4186 -83.9356 161° South 463 533 37,000  Level Atlanta Center
Wed 08:42:20 AM 32.2997 -83.8864 161° South 463 533 37,000  Level Atlanta Center
Wed 08:44:10 AM 32.0778 -83.7972 161° South 456 525 37,000  Level Jacksonville Center
Wed 08:45:10 AM 31.9592 -83.7472 160° South 451 519 37,000 -50 Level Jacksonville Center
Wed 08:46:10 AM 31.8403 -83.6947 159° South 451 519 36,900 -50 Descending Jacksonville Center
Wed 08:47:10 AM 31.7194 -83.6472 162° South 451 519 36,900 50 Level Jacksonville Center
Wed 08:48:10 AM 31.6028 -83.6025 162° South 475 547 37,000 100 Climbing Jacksonville Center
Wed 08:49:10 AM 31.4969 -83.5286 149° Southeast 475 547 37,100  Climbing Jacksonville Center
Wed 08:50:10 AM 31.3928 -83.4475 146° Southeast 454 522 37,000 -200 Descending Jacksonville Center
Wed 08:51:10 AM 31.2867 -83.3714 148° Southeast 454 522 36,700 -650 Descending Jacksonville Center
Wed 08:52:10 AM 31.1803 -83.2981 149° Southeast 448 516 35,700 -1,000 Descending Jacksonville Center
Wed 08:53:10 AM 31.0700 -83.2175 148° Southeast 454 522 34,700 -1,650 Descending Jacksonville Center
Wed 08:54:10 AM 30.9594 -83.1397 149° Southeast 454 522 32,400 -2,250 Descending Jacksonville Center
Wed 08:55:10 AM 30.8489 -83.0619 149° Southeast 459 528 30,200 -2,300 Descending Jacksonville Center
Wed 08:56:10 AM 30.7342 -82.9797 148° Southeast 459 528 27,800 -1,650 Descending Jacksonville Center
Wed 08:57:10 AM 30.6236 -82.9069 150° Southeast 448 516 26,900 -400 Descending Jacksonville Center
Wed 08:58:10 AM 30.5253 -82.8322 147° Southeast 435 501 27,000  Climbing Jacksonville Center
Wed 08:59:10 AM 30.4189 -82.7625 151° Southeast 435 501 26,900 -150 Descending Jacksonville Center
Wed 09:00:10 AM 30.3164 -82.6881 148° Southeast 435 501 26,700 -400 Descending Jacksonville Center
Wed 09:01:10 AM 30.2119 -82.6211 151° Southeast 430 495 26,100 -800 Descending Jacksonville Center
Wed 09:02:10 AM 30.1178 -82.5564 149° Southeast 430 495 25,100 -600 Descending Jacksonville Center
Wed 09:03:10 AM 30.0092 -82.4775 148° Southeast 425 489 24,900 -50 Descending Jacksonville Center
Wed 09:04:10 AM 29.9003 -82.4278 158° South 419 482 25,000  Climbing Jacksonville Center
Wed 09:05:10 AM 29.7875 -82.3875 163° South 419 482 24,900 -450 Descending Jacksonville Center
Wed 09:06:10 AM 29.6744 -82.3453 162° South 426 490 24,100 -950 Descending Jacksonville Center
Wed 09:07:10 AM 29.5742 -82.3100 163° South 421 484 23,000 -1,500 Descending Jacksonville Center
Wed 09:08:10 AM 29.4653 -82.2725 163° South 421 484 21,100 -1,800 Descending Jacksonville Center
Wed 09:09:10 AM 29.3567 -82.2325 162° South 416 479 19,400 -1,650 Descending Jacksonville Center
Wed 09:10:10 AM 29.2542 -82.1953 162° South 410 472 17,800 -1,750 Descending Jacksonville Center
Wed 09:11:10 AM 29.1581 -82.1556 160° South 392 451 15,900 -1,750 Descending Jacksonville Center
Wed 09:12:10 AM 29.0719 -82.1014 151° Southeast 365 420 14,300 -1,600 Descending Jacksonville Center
Wed 09:13:10 AM 28.9861 -82.0475 151° Southeast 354 407 12,700 -1,500 Descending Jacksonville Center
Wed 09:14:10 AM 28.9189 -81.9722 136° Southeast 342 394 11,300 -893 Descending Jacksonville Center
Wed 09:15:11 AM 28.8639 -81.9017 132° Southeast 320 368 10,900 -733 Descending Jacksonville Center
Wed 09:15:40 AM 28.8500 -81.8333 103° East 312 359 10,200 -1,213 Descending Orlando TRACON
Wed 09:16:40 AM 28.8167 -81.7500 115° Southeast 306 352 9,100 -600 Descending Orlando TRACON
Wed 09:17:40 AM 28.7833 -81.6667 115° Southeast 300 345 9,000 -248 Descending Orlando TRACON
Wed 09:18:41 AM 28.7500 -81.5833 115° Southeast 245 282 8,600 -694 Descending Orlando TRACON
Wed 09:19:41 AM 28.7333 -81.5167 106° East 242 278 7,600 -800 Descending Orlando TRACON
Wed 09:20:41 AM 28.7167 -81.4500 106° East 209 241 7,000 -762 Descending Orlando TRACON
Wed 09:21:47 AM 28.7000 -81.4000 111° Southeast 199 229 6,000 -1,100 Descending Orlando TRACON
Wed 09:22:41 AM 28.6500 -81.3667 150° Southeast 198 228 4,800 -1,333 Descending Orlando TRACON

Login

Don't have an account? Register now (free) for customized features, flight alerts, and more!